Webcam Flughafen St.Gallen-Altenrhein

Live-Bilder und Zeitraffer LSZR / ACH.

 

Live aus Altenrhein
LIVE
LSZR 060720Z AUTO 01003KT CAVOK 09/04 Q1024
Zeitraffer heute
2020-04-06 00:13:54
LSZR 052150Z AUTO VRB02KT CAVOK 08/03 Q1020